sensor_id;sensor_type;location;lat;lon;timestamp;P1;durP1;ratioP1;P2;durP2;ratioP2
38487;SDS011;57384;51.986;4.458;2023-07-31T00:00:36;12.15;;;11.57;;
38487;SDS011;57384;51.986;4.458;2023-07-31T00:03:03;10.18;;;9.88;;
38487;SDS011;57384;51.986;4.458;2023-07-31T00:05:30;10.75;;;10.43;;
38487;SDS011;57384;51.986;4.458;2023-07-31T00:07:56;12.25;;;11.45;;
38487;SDS011;57384;51.986;4.458;2023-07-31T00:10:25;12.60;;;12.00;;
38487;SDS011;57384;51.986;4.458;2023-07-31T00:12:51;14.05;;;13.35;;
38487;SDS011;57384;51.986;4.458;2023-07-31T00:15:19;10.55;;;10.25;;
38487;SDS011;57384;51.986;4.458;2023-07-31T00:17:47;12.63;;;12.23;;
38487;SDS011;57384;51.986;4.458;2023-07-31T00:20:14;12.80;;;11.65;;
38487;SDS011;57384;51.986;4.458;2023-07-31T00:22:42;15.50;;;11.63;;
38487;SDS011;57384;51.986;4.458;2023-07-31T00:25:10;12.35;;;11.85;;
38487;SDS011;57384;51.986;4.458;2023-07-31T00:27:36;13.27;;;12.80;;
38487;SDS011;57384;51.986;4.458;2023-07-31T00:30:08;11.25;;;10.90;;
38487;SDS011;57384;51.986;4.458;2023-07-31T00:32:35;12.27;;;11.88;;
38487;SDS011;57384;51.986;4.458;2023-07-31T00:35:03;13.55;;;12.98;;
38487;SDS011;57384;51.986;4.458;2023-07-31T00:37:30;12.77;;;12.38;;
38487;SDS011;57384;51.986;4.458;2023-07-31T00:39:56;10.30;;;9.98;;
38487;SDS011;57384;51.986;4.458;2023-07-31T00:42:30;12.02;;;11.65;;
38487;SDS011;57384;51.986;4.458;2023-07-31T00:44:57;10.50;;;10.15;;
38487;SDS011;57384;51.986;4.458;2023-07-31T00:47:25;12.73;;;12.30;;
38487;SDS011;57384;51.986;4.458;2023-07-31T00:49:53;10.80;;;10.50;;
38487;SDS011;57384;51.986;4.458;2023-07-31T00:52:20;10.98;;;10.57;;
38487;SDS011;57384;51.986;4.458;2023-07-31T00:54:50;10.38;;;10.07;;
38487;SDS011;57384;51.986;4.458;2023-07-31T00:57:17;10.52;;;10.23;;
38487;SDS011;57384;51.986;4.458;2023-07-31T00:59:43;10.65;;;10.30;;
38487;SDS011;57384;51.986;4.458;2023-07-31T01:02:10;10.50;;;10.20;;
38487;SDS011;57384;51.986;4.458;2023-07-31T01:04:37;10.80;;;10.48;;
38487;SDS011;57384;51.986;4.458;2023-07-31T01:12:31;9.63;;;9.32;;
38487;SDS011;57384;51.986;4.458;2023-07-31T01:17:28;12.18;;;11.65;;
38487;SDS011;57384;51.986;4.458;2023-07-31T01:19:57;9.80;;;9.50;;
38487;SDS011;57384;51.986;4.458;2023-07-31T01:22:36;10.23;;;9.93;;
38487;SDS011;57384;51.986;4.458;2023-07-31T01:28:13;26.65;;;10.82;;
38487;SDS011;57384;51.986;4.458;2023-07-31T01:30:47;10.45;;;10.15;;
38487;SDS011;57384;51.986;4.458;2023-07-31T01:33:17;9.93;;;9.63;;
38487;SDS011;57384;51.986;4.458;2023-07-31T01:35:53;10.02;;;9.73;;
38487;SDS011;57384;51.986;4.458;2023-07-31T01:38:23;11.90;;;11.30;;
38487;SDS011;57384;51.986;4.458;2023-07-31T01:40:56;11.65;;;11.20;;
38487;SDS011;57384;51.986;4.458;2023-07-31T01:43:23;10.95;;;10.65;;
38487;SDS011;57384;51.986;4.458;2023-07-31T01:45:50;10.93;;;10.63;;
38487;SDS011;57384;51.986;4.458;2023-07-31T01:48:16;10.18;;;9.85;;
38487;SDS011;57384;51.986;4.458;2023-07-31T01:50:45;9.80;;;9.48;;
38487;SDS011;57384;51.986;4.458;2023-07-31T01:53:12;11.00;;;10.63;;
38487;SDS011;57384;51.986;4.458;2023-07-31T01:55:38;12.10;;;10.55;;
38487;SDS011;57384;51.986;4.458;2023-07-31T01:58:06;10.55;;;10.15;;
38487;SDS011;57384;51.986;4.458;2023-07-31T02:00:34;9.57;;;9.27;;
38487;SDS011;57384;51.986;4.458;2023-07-31T02:03:01;11.43;;;11.00;;
38487;SDS011;57384;51.986;4.458;2023-07-31T02:05:27;10.02;;;9.73;;
38487;SDS011;57384;51.986;4.458;2023-07-31T02:07:54;11.80;;;11.27;;
38487;SDS011;57384;51.986;4.458;2023-07-31T02:10:23;10.95;;;10.65;;
38487;SDS011;57384;51.986;4.458;2023-07-31T02:12:49;13.43;;;12.32;;
38487;SDS011;57384;51.986;4.458;2023-07-31T02:15:18;10.93;;;10.52;;
38487;SDS011;57384;51.986;4.458;2023-07-31T02:17:47;11.90;;;11.05;;
38487;SDS011;57384;51.986;4.458;2023-07-31T02:20:23;11.63;;;10.98;;
38487;SDS011;57384;51.986;4.458;2023-07-31T02:22:52;10.90;;;10.50;;
38487;SDS011;57384;51.986;4.458;2023-07-31T02:25:19;10.23;;;9.80;;
38487;SDS011;57384;51.986;4.458;2023-07-31T02:27:45;10.70;;;10.30;;
38487;SDS011;57384;51.986;4.458;2023-07-31T02:30:12;10.48;;;10.07;;
38487;SDS011;57384;51.986;4.458;2023-07-31T02:32:42;8.15;;;7.85;;
38487;SDS011;57384;51.986;4.458;2023-07-31T02:35:08;11.43;;;9.98;;
38487;SDS011;57384;51.986;4.458;2023-07-31T02:37:38;8.25;;;8.00;;
38487;SDS011;57384;51.986;4.458;2023-07-31T02:40:05;9.55;;;9.18;;
38487;SDS011;57384;51.986;4.458;2023-07-31T02:42:32;7.50;;;7.22;;
38487;SDS011;57384;51.986;4.458;2023-07-31T02:44:59;9.25;;;8.95;;
38487;SDS011;57384;51.986;4.458;2023-07-31T02:47:26;10.88;;;10.00;;
38487;SDS011;57384;51.986;4.458;2023-07-31T02:49:53;9.52;;;9.13;;
38487;SDS011;57384;51.986;4.458;2023-07-31T02:52:21;8.15;;;7.72;;
38487;SDS011;57384;51.986;4.458;2023-07-31T02:54:49;7.95;;;7.75;;
38487;SDS011;57384;51.986;4.458;2023-07-31T02:57:16;9.15;;;8.68;;
38487;SDS011;57384;51.986;4.458;2023-07-31T02:59:44;8.73;;;8.43;;
38487;SDS011;57384;51.986;4.458;2023-07-31T03:02:12;9.27;;;8.98;;
38487;SDS011;57384;51.986;4.458;2023-07-31T03:04:39;8.95;;;8.65;;
38487;SDS011;57384;51.986;4.458;2023-07-31T03:07:06;9.88;;;9.48;;
38487;SDS011;57384;51.986;4.458;2023-07-31T03:09:33;8.60;;;8.30;;
38487;SDS011;57384;51.986;4.458;2023-07-31T03:12:01;8.30;;;8.00;;
38487;SDS011;57384;51.986;4.458;2023-07-31T03:14:27;9.05;;;8.75;;
38487;SDS011;57384;51.986;4.458;2023-07-31T03:16:54;8.30;;;7.90;;
38487;SDS011;57384;51.986;4.458;2023-07-31T03:19:22;10.75;;;10.18;;
38487;SDS011;57384;51.986;4.458;2023-07-31T03:21:56;9.07;;;8.60;;
38487;SDS011;57384;51.986;4.458;2023-07-31T03:24:26;8.93;;;8.63;;
38487;SDS011;57384;51.986;4.458;2023-07-31T03:26:54;9.98;;;9.57;;
38487;SDS011;57384;51.986;4.458;2023-07-31T03:29:21;10.15;;;9.77;;
38487;SDS011;57384;51.986;4.458;2023-07-31T03:31:50;10.50;;;10.10;;
38487;SDS011;57384;51.986;4.458;2023-07-31T03:34:17;8.98;;;8.68;;
38487;SDS011;57384;51.986;4.458;2023-07-31T03:36:44;10.43;;;9.93;;
38487;SDS011;57384;51.986;4.458;2023-07-31T03:39:12;10.30;;;9.90;;
38487;SDS011;57384;51.986;4.458;2023-07-31T03:41:40;10.60;;;10.20;;
38487;SDS011;57384;51.986;4.458;2023-07-31T03:44:07;9.57;;;9.20;;
38487;SDS011;57384;51.986;4.458;2023-07-31T03:46:35;10.52;;;10.02;;
38487;SDS011;57384;51.986;4.458;2023-07-31T03:49:01;10.98;;;10.68;;
38487;SDS011;57384;51.986;4.458;2023-07-31T03:51:28;9.90;;;9.60;;
38487;SDS011;57384;51.986;4.458;2023-07-31T03:53:55;11.15;;;10.35;;
38487;SDS011;57384;51.986;4.458;2023-07-31T03:56:21;9.85;;;9.55;;
38487;SDS011;57384;51.986;4.458;2023-07-31T03:58:48;8.80;;;8.52;;
38487;SDS011;57384;51.986;4.458;2023-07-31T04:01:15;10.30;;;10.00;;
38487;SDS011;57384;51.986;4.458;2023-07-31T04:03:41;10.40;;;10.07;;
38487;SDS011;57384;51.986;4.458;2023-07-31T04:06:08;10.88;;;10.00;;
38487;SDS011;57384;51.986;4.458;2023-07-31T04:08:35;10.38;;;10.07;;
38487;SDS011;57384;51.986;4.458;2023-07-31T04:11:02;11.50;;;11.10;;
38487;SDS011;57384;51.986;4.458;2023-07-31T04:13:29;11.35;;;10.95;;
38487;SDS011;57384;51.986;4.458;2023-07-31T04:15:57;9.23;;;8.95;;
38487;SDS011;57384;51.986;4.458;2023-07-31T04:18:26;8.40;;;8.18;;
38487;SDS011;57384;51.986;4.458;2023-07-31T04:20:52;8.98;;;8.73;;
38487;SDS011;57384;51.986;4.458;2023-07-31T04:23:19;10.50;;;10.20;;
38487;SDS011;57384;51.986;4.458;2023-07-31T04:25:46;10.75;;;10.40;;
38487;SDS011;57384;51.986;4.458;2023-07-31T04:28:14;9.75;;;9.45;;
38487;SDS011;57384;51.986;4.458;2023-07-31T04:30:41;9.73;;;9.43;;
38487;SDS011;57384;51.986;4.458;2023-07-31T04:33:09;9.10;;;8.82;;
38487;SDS011;57384;51.986;4.458;2023-07-31T04:35:35;8.57;;;8.27;;
38487;SDS011;57384;51.986;4.458;2023-07-31T04:38:02;9.13;;;8.82;;
38487;SDS011;57384;51.986;4.458;2023-07-31T04:40:29;7.75;;;7.55;;
38487;SDS011;57384;51.986;4.458;2023-07-31T04:42:55;8.77;;;8.50;;
38487;SDS011;57384;51.986;4.458;2023-07-31T04:45:23;7.95;;;7.75;;
38487;SDS011;57384;51.986;4.458;2023-07-31T04:47:52;9.55;;;9.25;;
38487;SDS011;57384;51.986;4.458;2023-07-31T04:50:19;8.52;;;8.20;;
38487;SDS011;57384;51.986;4.458;2023-07-31T04:52:48;8.77;;;8.52;;
38487;SDS011;57384;51.986;4.458;2023-07-31T04:55:14;8.93;;;8.63;;
38487;SDS011;57384;51.986;4.458;2023-07-31T04:57:41;7.35;;;7.15;;
38487;SDS011;57384;51.986;4.458;2023-07-31T05:00:10;9.02;;;8.75;;
38487;SDS011;57384;51.986;4.458;2023-07-31T05:02:37;9.10;;;8.80;;
38487;SDS011;57384;51.986;4.458;2023-07-31T05:05:05;8.63;;;8.38;;
38487;SDS011;57384;51.986;4.458;2023-07-31T05:07:34;9.63;;;9.32;;
38487;SDS011;57384;51.986;4.458;2023-07-31T05:10:01;8.18;;;7.95;;
38487;SDS011;57384;51.986;4.458;2023-07-31T05:12:31;9.75;;;9.25;;
38487;SDS011;57384;51.986;4.458;2023-07-31T05:15:00;8.50;;;8.20;;
38487;SDS011;57384;51.986;4.458;2023-07-31T05:17:30;9.00;;;8.73;;
38487;SDS011;57384;51.986;4.458;2023-07-31T05:19:59;9.13;;;8.85;;
38487;SDS011;57384;51.986;4.458;2023-07-31T05:22:26;10.52;;;10.23;;
38487;SDS011;57384;51.986;4.458;2023-07-31T05:24:52;8.15;;;7.93;;
38487;SDS011;57384;51.986;4.458;2023-07-31T05:27:20;8.57;;;8.30;;
38487;SDS011;57384;51.986;4.458;2023-07-31T05:29:48;10.05;;;9.70;;
38487;SDS011;57384;51.986;4.458;2023-07-31T05:32:15;8.88;;;8.60;;
38487;SDS011;57384;51.986;4.458;2023-07-31T05:34:41;9.55;;;9.25;;
38487;SDS011;57384;51.986;4.458;2023-07-31T05:37:10;11.20;;;10.88;;
38487;SDS011;57384;51.986;4.458;2023-07-31T05:39:37;9.90;;;9.60;;
38487;SDS011;57384;51.986;4.458;2023-07-31T05:42:04;9.48;;;9.20;;
38487;SDS011;57384;51.986;4.458;2023-07-31T05:44:32;10.88;;;10.57;;
38487;SDS011;57384;51.986;4.458;2023-07-31T05:46:59;9.05;;;8.77;;
38487;SDS011;57384;51.986;4.458;2023-07-31T05:49:27;9.18;;;8.90;;
38487;SDS011;57384;51.986;4.458;2023-07-31T05:51:53;9.45;;;9.15;;
38487;SDS011;57384;51.986;4.458;2023-07-31T05:54:22;9.07;;;8.80;;
38487;SDS011;57384;51.986;4.458;2023-07-31T05:56:49;9.88;;;9.57;;
38487;SDS011;57384;51.986;4.458;2023-07-31T05:59:15;10.95;;;10.65;;
38487;SDS011;57384;51.986;4.458;2023-07-31T06:01:42;10.75;;;10.15;;
38487;SDS011;57384;51.986;4.458;2023-07-31T06:04:09;10.90;;;10.57;;
38487;SDS011;57384;51.986;4.458;2023-07-31T06:06:36;11.77;;;11.43;;
38487;SDS011;57384;51.986;4.458;2023-07-31T06:09:04;11.10;;;10.80;;
38487;SDS011;57384;51.986;4.458;2023-07-31T06:11:31;11.07;;;10.75;;
38487;SDS011;57384;51.986;4.458;2023-07-31T06:14:03;11.63;;;11.30;;
38487;SDS011;57384;51.986;4.458;2023-07-31T06:16:31;10.98;;;10.68;;
38487;SDS011;57384;51.986;4.458;2023-07-31T06:18:57;13.20;;;12.80;;
38487;SDS011;57384;51.986;4.458;2023-07-31T06:21:25;13.55;;;13.15;;
38487;SDS011;57384;51.986;4.458;2023-07-31T06:23:51;12.52;;;12.18;;
38487;SDS011;57384;51.986;4.458;2023-07-31T06:26:18;10.30;;;10.00;;
38487;SDS011;57384;51.986;4.458;2023-07-31T06:28:44;11.40;;;11.07;;
38487;SDS011;57384;51.986;4.458;2023-07-31T06:31:12;12.57;;;12.20;;
38487;SDS011;57384;51.986;4.458;2023-07-31T06:33:41;12.60;;;12.23;;
38487;SDS011;57384;51.986;4.458;2023-07-31T06:36:09;13.65;;;13.25;;
38487;SDS011;57384;51.986;4.458;2023-07-31T06:38:39;11.52;;;11.20;;
38487;SDS011;57384;51.986;4.458;2023-07-31T06:41:05;12.52;;;12.15;;
38487;SDS011;57384;51.986;4.458;2023-07-31T06:43:32;10.55;;;10.25;;
38487;SDS011;57384;51.986;4.458;2023-07-31T06:46:04;13.82;;;13.43;;
38487;SDS011;57384;51.986;4.458;2023-07-31T06:48:32;13.35;;;12.77;;
38487;SDS011;57384;51.986;4.458;2023-07-31T06:53:29;9.20;;;8.93;;
38487;SDS011;57384;51.986;4.458;2023-07-31T06:55:57;10.57;;;10.27;;
38487;SDS011;57384;51.986;4.458;2023-07-31T06:58:25;12.68;;;12.30;;
38487;SDS011;57384;51.986;4.458;2023-07-31T07:00:52;13.23;;;12.82;;
38487;SDS011;57384;51.986;4.458;2023-07-31T07:03:20;14.25;;;13.82;;
38487;SDS011;57384;51.986;4.458;2023-07-31T07:05:46;14.18;;;13.75;;
38487;SDS011;57384;51.986;4.458;2023-07-31T07:08:13;15.83;;;15.37;;
38487;SDS011;57384;51.986;4.458;2023-07-31T07:10:41;16.52;;;16.02;;
38487;SDS011;57384;51.986;4.458;2023-07-31T07:13:09;16.23;;;15.73;;
38487;SDS011;57384;51.986;4.458;2023-07-31T07:15:37;16.08;;;15.60;;
38487;SDS011;57384;51.986;4.458;2023-07-31T07:18:04;16.85;;;16.35;;
38487;SDS011;57384;51.986;4.458;2023-07-31T07:20:32;15.43;;;14.73;;
38487;SDS011;57384;51.986;4.458;2023-07-31T07:22:58;14.98;;;14.52;;
38487;SDS011;57384;51.986;4.458;2023-07-31T07:25:25;15.75;;;15.25;;
38487;SDS011;57384;51.986;4.458;2023-07-31T07:27:52;17.45;;;16.88;;
38487;SDS011;57384;51.986;4.458;2023-07-31T07:30:18;18.58;;;17.98;;
38487;SDS011;57384;51.986;4.458;2023-07-31T07:32:45;16.50;;;16.00;;
38487;SDS011;57384;51.986;4.458;2023-07-31T07:35:11;16.05;;;15.55;;
38487;SDS011;57384;51.986;4.458;2023-07-31T07:37:38;17.40;;;16.90;;
38487;SDS011;57384;51.986;4.458;2023-07-31T07:40:05;16.70;;;16.20;;
38487;SDS011;57384;51.986;4.458;2023-07-31T07:42:33;17.23;;;16.73;;
38487;SDS011;57384;51.986;4.458;2023-07-31T07:45:01;16.92;;;16.40;;
38487;SDS011;57384;51.986;4.458;2023-07-31T07:47:29;14.13;;;13.73;;
38487;SDS011;57384;51.986;4.458;2023-07-31T07:49:56;13.77;;;13.38;;
38487;SDS011;57384;51.986;4.458;2023-07-31T07:52:22;13.77;;;13.38;;
38487;SDS011;57384;51.986;4.458;2023-07-31T07:54:49;12.32;;;11.98;;
38487;SDS011;57384;51.986;4.458;2023-07-31T07:57:17;13.25;;;12.85;;
38487;SDS011;57384;51.986;4.458;2023-07-31T07:59:44;12.63;;;12.25;;
38487;SDS011;57384;51.986;4.458;2023-07-31T08:02:12;11.00;;;10.70;;
38487;SDS011;57384;51.986;4.458;2023-07-31T08:04:38;9.18;;;8.88;;
38487;SDS011;57384;51.986;4.458;2023-07-31T08:07:05;11.23;;;10.93;;
38487;SDS011;57384;51.986;4.458;2023-07-31T08:09:33;10.30;;;10.00;;
38487;SDS011;57384;51.986;4.458;2023-07-31T08:12:06;9.57;;;9.27;;
38487;SDS011;57384;51.986;4.458;2023-07-31T08:17:09;9.50;;;9.20;;
38487;SDS011;57384;51.986;4.458;2023-07-31T08:19:37;10.13;;;9.82;;
38487;SDS011;57384;51.986;4.458;2023-07-31T08:22:03;10.07;;;9.77;;
38487;SDS011;57384;51.986;4.458;2023-07-31T08:24:30;9.02;;;8.73;;
38487;SDS011;57384;51.986;4.458;2023-07-31T08:26:58;9.45;;;9.15;;
38487;SDS011;57384;51.986;4.458;2023-07-31T08:29:25;9.38;;;9.07;;
38487;SDS011;57384;51.986;4.458;2023-07-31T08:31:52;8.80;;;8.55;;
38487;SDS011;57384;51.986;4.458;2023-07-31T08:34:20;9.75;;;9.45;;
38487;SDS011;57384;51.986;4.458;2023-07-31T08:36:46;9.15;;;8.88;;
38487;SDS011;57384;51.986;4.458;2023-07-31T08:39:14;9.60;;;9.30;;
38487;SDS011;57384;51.986;4.458;2023-07-31T08:41:41;10.00;;;9.70;;
38487;SDS011;57384;51.986;4.458;2023-07-31T08:44:09;9.98;;;9.68;;
38487;SDS011;57384;51.986;4.458;2023-07-31T08:46:39;8.38;;;8.15;;
38487;SDS011;57384;51.986;4.458;2023-07-31T08:49:08;9.10;;;8.82;;
38487;SDS011;57384;51.986;4.458;2023-07-31T08:51:36;11.02;;;10.73;;
38487;SDS011;57384;51.986;4.458;2023-07-31T08:54:03;9.27;;;8.98;;
38487;SDS011;57384;51.986;4.458;2023-07-31T08:56:31;9.32;;;9.02;;
38487;SDS011;57384;51.986;4.458;2023-07-31T08:59:00;9.75;;;9.45;;
38487;SDS011;57384;51.986;4.458;2023-07-31T09:01:29;10.00;;;9.70;;
38487;SDS011;57384;51.986;4.458;2023-07-31T09:04:01;10.23;;;9.93;;
38487;SDS011;57384;51.986;4.458;2023-07-31T09:06:30;9.30;;;9.00;;
38487;SDS011;57384;51.986;4.458;2023-07-31T09:08:57;11.27;;;10.57;;
38487;SDS011;57384;51.986;4.458;2023-07-31T09:11:24;11.68;;;11.32;;
38487;SDS011;57384;51.986;4.458;2023-07-31T09:13:51;8.65;;;8.43;;
38487;SDS011;57384;51.986;4.458;2023-07-31T09:16:26;9.60;;;9.30;;
38487;SDS011;57384;51.986;4.458;2023-07-31T09:18:55;9.52;;;9.23;;
38487;SDS011;57384;51.986;4.458;2023-07-31T09:21:22;10.70;;;10.40;;
38487;SDS011;57384;51.986;4.458;2023-07-31T09:23:50;10.05;;;9.75;;
38487;SDS011;57384;51.986;4.458;2023-07-31T09:26:34;10.52;;;10.23;;
38487;SDS011;57384;51.986;4.458;2023-07-31T09:29:04;11.00;;;10.70;;
38487;SDS011;57384;51.986;4.458;2023-07-31T09:31:38;10.50;;;10.20;;
38487;SDS011;57384;51.986;4.458;2023-07-31T09:34:07;9.43;;;9.13;;
38487;SDS011;57384;51.986;4.458;2023-07-31T09:36:45;10.23;;;9.93;;
38487;SDS011;57384;51.986;4.458;2023-07-31T09:39:17;9.98;;;9.68;;
38487;SDS011;57384;51.986;4.458;2023-07-31T09:41:44;9.68;;;9.38;;
38487;SDS011;57384;51.986;4.458;2023-07-31T09:44:14;10.13;;;9.82;;
38487;SDS011;57384;51.986;4.458;2023-07-31T09:46:41;11.02;;;10.73;;
38487;SDS011;57384;51.986;4.458;2023-07-31T09:49:09;11.07;;;10.77;;
38487;SDS011;57384;51.986;4.458;2023-07-31T09:51:37;12.27;;;11.88;;
38487;SDS011;57384;51.986;4.458;2023-07-31T09:54:14;11.98;;;11.57;;
38487;SDS011;57384;51.986;4.458;2023-07-31T09:56:48;11.20;;;10.90;;
38487;SDS011;57384;51.986;4.458;2023-07-31T09:59:15;11.38;;;11.07;;
38487;SDS011;57384;51.986;4.458;2023-07-31T10:01:45;11.18;;;10.88;;
38487;SDS011;57384;51.986;4.458;2023-07-31T10:04:12;12.88;;;12.50;;
38487;SDS011;57384;51.986;4.458;2023-07-31T10:06:40;14.07;;;13.68;;
38487;SDS011;57384;51.986;4.458;2023-07-31T10:09:15;12.48;;;12.10;;
38487;SDS011;57384;51.986;4.458;2023-07-31T10:11:48;13.23;;;12.82;;
38487;SDS011;57384;51.986;4.458;2023-07-31T10:14:21;12.88;;;12.48;;
38487;SDS011;57384;51.986;4.458;2023-07-31T10:16:50;13.80;;;13.40;;
38487;SDS011;57384;51.986;4.458;2023-07-31T10:19:18;16.02;;;15.52;;
38487;SDS011;57384;51.986;4.458;2023-07-31T10:21:52;14.80;;;14.32;;
38487;SDS011;57384;51.986;4.458;2023-07-31T10:26:46;9.68;;;9.38;;
38487;SDS011;57384;51.986;4.458;2023-07-31T10:29:15;11.55;;;11.25;;
38487;SDS011;57384;51.986;4.458;2023-07-31T10:31:43;11.43;;;11.13;;
38487;SDS011;57384;51.986;4.458;2023-07-31T10:34:13;10.77;;;10.45;;
38487;SDS011;57384;51.986;4.458;2023-07-31T10:36:44;11.05;;;10.75;;
38487;SDS011;57384;51.986;4.458;2023-07-31T10:42:12;9.98;;;9.60;;
38487;SDS011;57384;51.986;4.458;2023-07-31T10:44:46;10.07;;;9.43;;
38487;SDS011;57384;51.986;4.458;2023-07-31T10:47:14;8.18;;;7.95;;
38487;SDS011;57384;51.986;4.458;2023-07-31T10:49:44;9.18;;;8.90;;
38487;SDS011;57384;51.986;4.458;2023-07-31T10:52:12;7.93;;;7.70;;
38487;SDS011;57384;51.986;4.458;2023-07-31T10:54:39;9.48;;;9.18;;
38487;SDS011;57384;51.986;4.458;2023-07-31T10:57:22;8.50;;;8.23;;
38487;SDS011;57384;51.986;4.458;2023-07-31T10:59:50;7.05;;;6.75;;
38487;SDS011;57384;51.986;4.458;2023-07-31T11:02:26;9.85;;;8.68;;
38487;SDS011;57384;51.986;4.458;2023-07-31T11:05:09;8.45;;;8.15;;
38487;SDS011;57384;51.986;4.458;2023-07-31T11:07:48;8.15;;;7.90;;
38487;SDS011;57384;51.986;4.458;2023-07-31T11:10:17;7.45;;;7.25;;
38487;SDS011;57384;51.986;4.458;2023-07-31T11:12:44;8.82;;;8.55;;
38487;SDS011;57384;51.986;4.458;2023-07-31T11:15:12;8.60;;;8.30;;
38487;SDS011;57384;51.986;4.458;2023-07-31T11:17:39;8.00;;;7.78;;
38487;SDS011;57384;51.986;4.458;2023-07-31T11:20:06;7.95;;;7.63;;
38487;SDS011;57384;51.986;4.458;2023-07-31T11:22:35;8.93;;;8.63;;
38487;SDS011;57384;51.986;4.458;2023-07-31T11:25:04;9.38;;;9.07;;
38487;SDS011;57384;51.986;4.458;2023-07-31T11:27:38;8.68;;;8.38;;
38487;SDS011;57384;51.986;4.458;2023-07-31T11:30:05;9.02;;;8.63;;
38487;SDS011;57384;51.986;4.458;2023-07-31T11:32:32;9.15;;;8.85;;
38487;SDS011;57384;51.986;4.458;2023-07-31T11:34:59;7.68;;;7.47;;
38487;SDS011;57384;51.986;4.458;2023-07-31T11:37:43;8.70;;;8.40;;
38487;SDS011;57384;51.986;4.458;2023-07-31T11:40:10;8.20;;;8.00;;
38487;SDS011;57384;51.986;4.458;2023-07-31T11:42:39;19.42;;;8.38;;
38487;SDS011;57384;51.986;4.458;2023-07-31T11:45:08;8.57;;;8.27;;
38487;SDS011;57384;51.986;4.458;2023-07-31T11:47:36;10.30;;;10.00;;
38487;SDS011;57384;51.986;4.458;2023-07-31T11:50:10;8.30;;;8.00;;
38487;SDS011;57384;51.986;4.458;2023-07-31T11:52:42;7.22;;;7.03;;
38487;SDS011;57384;51.986;4.458;2023-07-31T11:55:12;7.47;;;7.18;;
38487;SDS011;57384;51.986;4.458;2023-07-31T11:57:39;7.70;;;7.50;;
38487;SDS011;57384;51.986;4.458;2023-07-31T12:00:08;6.78;;;6.57;;
38487;SDS011;57384;51.986;4.458;2023-07-31T12:02:37;8.30;;;8.07;;
38487;SDS011;57384;51.986;4.458;2023-07-31T12:07:47;8.25;;;7.82;;
38487;SDS011;57384;51.986;4.458;2023-07-31T12:10:31;7.60;;;7.35;;
38487;SDS011;57384;51.986;4.458;2023-07-31T12:12:59;8.93;;;8.32;;
38487;SDS011;57384;51.986;4.458;2023-07-31T12:18:05;7.97;;;7.78;;
38487;SDS011;57384;51.986;4.458;2023-07-31T12:20:35;8.18;;;7.97;;
38487;SDS011;57384;51.986;4.458;2023-07-31T12:23:07;8.68;;;8.38;;
38487;SDS011;57384;51.986;4.458;2023-07-31T12:25:46;7.57;;;7.38;;
38487;SDS011;57384;51.986;4.458;2023-07-31T12:28:13;8.00;;;7.80;;
38487;SDS011;57384;51.986;4.458;2023-07-31T12:30:41;8.18;;;7.95;;
38487;SDS011;57384;51.986;4.458;2023-07-31T12:33:15;8.07;;;7.80;;
38487;SDS011;57384;51.986;4.458;2023-07-31T12:35:43;8.63;;;8.32;;
38487;SDS011;57384;51.986;4.458;2023-07-31T12:38:13;8.60;;;8.30;;
38487;SDS011;57384;51.986;4.458;2023-07-31T12:40:45;8.00;;;7.80;;
38487;SDS011;57384;51.986;4.458;2023-07-31T12:43:13;8.27;;;7.97;;
38487;SDS011;57384;51.986;4.458;2023-07-31T12:45:39;8.30;;;7.95;;
38487;SDS011;57384;51.986;4.458;2023-07-31T12:48:06;7.93;;;7.72;;
38487;SDS011;57384;51.986;4.458;2023-07-31T12:50:33;7.97;;;7.78;;
38487;SDS011;57384;51.986;4.458;2023-07-31T12:53:00;7.93;;;7.68;;
38487;SDS011;57384;51.986;4.458;2023-07-31T12:55:27;8.23;;;7.93;;
38487;SDS011;57384;51.986;4.458;2023-07-31T12:57:55;8.00;;;7.80;;
38487;SDS011;57384;51.986;4.458;2023-07-31T13:00:22;6.68;;;6.47;;
38487;SDS011;57384;51.986;4.458;2023-07-31T13:02:49;6.50;;;6.30;;
38487;SDS011;57384;51.986;4.458;2023-07-31T13:05:16;6.20;;;6.00;;
38487;SDS011;57384;51.986;4.458;2023-07-31T13:07:43;6.35;;;6.15;;
38487;SDS011;57384;51.986;4.458;2023-07-31T13:10:10;7.05;;;6.85;;
38487;SDS011;57384;51.986;4.458;2023-07-31T13:12:40;7.07;;;6.88;;
38487;SDS011;57384;51.986;4.458;2023-07-31T13:15:08;6.72;;;6.53;;
38487;SDS011;57384;51.986;4.458;2023-07-31T13:17:35;6.13;;;5.93;;
38487;SDS011;57384;51.986;4.458;2023-07-31T13:20:02;6.50;;;6.30;;
38487;SDS011;57384;51.986;4.458;2023-07-31T13:22:29;6.63;;;6.43;;
38487;SDS011;57384;51.986;4.458;2023-07-31T13:24:55;7.97;;;7.78;;
38487;SDS011;57384;51.986;4.458;2023-07-31T13:27:28;8.10;;;7.80;;
38487;SDS011;57384;51.986;4.458;2023-07-31T13:30:00;7.32;;;7.13;;
38487;SDS011;57384;51.986;4.458;2023-07-31T13:32:28;6.90;;;6.70;;
38487;SDS011;57384;51.986;4.458;2023-07-31T13:34:56;5.93;;;5.72;;
38487;SDS011;57384;51.986;4.458;2023-07-31T13:37:24;6.45;;;6.25;;
38487;SDS011;57384;51.986;4.458;2023-07-31T13:39:52;6.15;;;5.95;;
38487;SDS011;57384;51.986;4.458;2023-07-31T13:42:21;6.80;;;6.60;;
38487;SDS011;57384;51.986;4.458;2023-07-31T13:44:50;6.35;;;6.15;;
38487;SDS011;57384;51.986;4.458;2023-07-31T13:47:17;5.93;;;5.72;;
38487;SDS011;57384;51.986;4.458;2023-07-31T13:49:44;6.38;;;6.18;;
38487;SDS011;57384;51.986;4.458;2023-07-31T13:52:11;6.97;;;6.78;;
38487;SDS011;57384;51.986;4.458;2023-07-31T13:54:37;6.40;;;6.18;;
38487;SDS011;57384;51.986;4.458;2023-07-31T13:57:05;5.90;;;5.70;;
38487;SDS011;57384;51.986;4.458;2023-07-31T13:59:32;6.20;;;6.00;;
38487;SDS011;57384;51.986;4.458;2023-07-31T14:01:59;6.88;;;6.68;;
38487;SDS011;57384;51.986;4.458;2023-07-31T14:04:27;6.35;;;6.15;;
38487;SDS011;57384;51.986;4.458;2023-07-31T14:06:59;6.63;;;6.43;;
38487;SDS011;57384;51.986;4.458;2023-07-31T14:09:26;6.15;;;5.95;;
38487;SDS011;57384;51.986;4.458;2023-07-31T14:11:53;6.22;;;6.03;;
38487;SDS011;57384;51.986;4.458;2023-07-31T14:14:21;5.82;;;5.63;;
38487;SDS011;57384;51.986;4.458;2023-07-31T14:16:48;6.65;;;6.45;;
38487;SDS011;57384;51.986;4.458;2023-07-31T14:19:17;5.43;;;5.22;;
38487;SDS011;57384;51.986;4.458;2023-07-31T14:21:44;6.25;;;5.97;;
38487;SDS011;57384;51.986;4.458;2023-07-31T14:24:11;4.85;;;4.72;;
38487;SDS011;57384;51.986;4.458;2023-07-31T14:26:39;6.15;;;5.95;;
38487;SDS011;57384;51.986;4.458;2023-07-31T14:29:05;5.57;;;5.38;;
38487;SDS011;57384;51.986;4.458;2023-07-31T14:31:33;6.50;;;6.30;;
38487;SDS011;57384;51.986;4.458;2023-07-31T14:34:01;5.00;;;4.85;;
38487;SDS011;57384;51.986;4.458;2023-07-31T14:36:33;5.47;;;5.28;;
38487;SDS011;57384;51.986;4.458;2023-07-31T14:39:00;5.13;;;4.95;;
38487;SDS011;57384;51.986;4.458;2023-07-31T14:41:28;4.50;;;4.40;;
38487;SDS011;57384;51.986;4.458;2023-07-31T14:43:55;7.68;;;6.10;;
38487;SDS011;57384;51.986;4.458;2023-07-31T14:46:24;6.03;;;5.82;;
38487;SDS011;57384;51.986;4.458;2023-07-31T14:48:50;6.05;;;5.85;;
38487;SDS011;57384;51.986;4.458;2023-07-31T14:51:17;5.70;;;5.50;;
38487;SDS011;57384;51.986;4.458;2023-07-31T14:53:44;5.57;;;5.38;;
38487;SDS011;57384;51.986;4.458;2023-07-31T14:56:10;5.60;;;5.40;;
38487;SDS011;57384;51.986;4.458;2023-07-31T14:58:39;5.85;;;5.65;;
38487;SDS011;57384;51.986;4.458;2023-07-31T15:01:07;5.25;;;5.05;;
38487;SDS011;57384;51.986;4.458;2023-07-31T15:03:34;5.05;;;4.90;;
38487;SDS011;57384;51.986;4.458;2023-07-31T15:06:00;5.07;;;4.90;;
38487;SDS011;57384;51.986;4.458;2023-07-31T15:08:27;6.00;;;5.80;;